TimeEDT,TemperatureF,Dew PointF,Humidity,Sea Level PressureIn,VisibilityMPH,Wind Direction,Wind SpeedMPH,Gust SpeedMPH,PrecipitationIn,Events,Conditions,WindDirDegrees,DateUTC
12:01 AM,53.6,53.6,100,30.03,0.5,Calm,Calm,-,N/A,Fog,Fog,0,2012-10-05 04:01:00
12:16 AM,55.4,55.4,100,30.03,0.5,Calm,Calm,-,N/A,Fog,Fog,0,2012-10-05 04:16:00
12:24 AM,55.4,53.6,94,30.02,0.2,Calm,Calm,-,N/A,Fog,Fog,0,2012-10-05 04:24:00
12:52 AM,55.0,54.0,96,30.02,0.2,Calm,Calm,-,N/A,Fog,Fog,0,2012-10-05 04:52:00
1:52 AM,54.0,53.1,97,30.02,0.2,Calm,Calm,-,N/A,Fog,Fog,0,2012-10-05 05:52:00
2:09 AM,53.6,53.6,100,30.01,0.2,Calm,Calm,-,N/A,Fog,Fog,0,2012-10-05 06:09:00
2:52 AM,53.1,52.0,96,30.00,0.2,Calm,Calm,-,N/A,Fog,Fog,0,2012-10-05 06:52:00
3:03 AM,53.6,51.8,94,29.99,1.0,Calm,Calm,-,N/A,,Mist,0,2012-10-05 07:03:00
3:06 AM,53.6,51.8,94,29.99,2.5,Calm,Calm,-,N/A,,Overcast,0,2012-10-05 07:06:00
3:13 AM,53.6,51.8,94,29.99,6.0,East,3.5,-,N/A,,Overcast,100,2012-10-05 07:13:00
3:48 AM,53.6,51.8,94,29.99,1.5,Calm,Calm,-,N/A,,Overcast,0,2012-10-05 07:48:00
3:50 AM,53.6,51.8,94,29.99,0.8,Calm,Calm,-,N/A,,Overcast,0,2012-10-05 07:50:00
4:01 AM,53.6,51.8,94,29.99,0.2,Calm,Calm,-,N/A,Fog,Fog,0,2012-10-05 08:01:00
4:32 AM,53.6,51.8,94,30.00,0.8,Calm,Calm,-,N/A,,Mist,0,2012-10-05 08:32:00
4:52 AM,54.0,53.1,97,30.00,0.2,Calm,Calm,-,N/A,Fog,Fog,0,2012-10-05 08:52:00
5:52 AM,52.0,52.0,100,30.01,0.2,SSW,3.5,-,N/A,Fog,Fog,200,2012-10-05 09:52:00
6:09 AM,51.8,51.8,100,30.01,0.5,SSE,3.5,-,N/A,Fog,Fog,150,2012-10-05 10:09:00
6:22 AM,51.8,51.8,100,30.01,1.5,Calm,Calm,-,N/A,,Overcast,0,2012-10-05 10:22:00
6:47 AM,51.8,51.8,100,30.00,2.5,SSW,3.5,-,N/A,,Overcast,210,2012-10-05 10:47:00
6:52 AM,52.0,51.1,97,30.01,3.0,South,3.5,-,N/A,,Overcast,170,2012-10-05 10:52:00
7:06 AM,51.8,51.8,100,30.00,2.5,South,3.5,-,N/A,,Overcast,170,2012-10-05 11:06:00
7:14 AM,51.8,51.8,100,30.00,5.0,South,4.6,-,N/A,,Overcast,190,2012-10-05 11:14:00
7:34 AM,51.8,51.8,100,30.00,1.8,South,3.5,-,N/A,,Overcast,190,2012-10-05 11:34:00
7:42 AM,51.8,51.8,100,30.00,0.8,Calm,Calm,-,N/A,,Overcast,0,2012-10-05 11:42:00
7:52 AM,53.1,52.0,96,30.00,0.8,SSW,3.5,-,N/A,,Overcast,200,2012-10-05 11:52:00
8:02 AM,53.6,51.8,94,30.00,1.5,South,3.5,-,N/A,,Overcast,180,2012-10-05 12:02:00
8:07 AM,53.6,51.8,94,29.99,3.0,South,4.6,-,N/A,,Overcast,170,2012-10-05 12:07:00
8:24 AM,55.4,53.6,94,30.00,4.0,South,3.5,-,N/A,,Overcast,170,2012-10-05 12:24:00
8:38 AM,55.4,53.6,94,30.00,2.0,Calm,Calm,-,N/A,,Overcast,0,2012-10-05 12:38:00
8:52 AM,57.0,55.0,93,30.00,1.2,SE,3.5,-,N/A,,Overcast,140,2012-10-05 12:52:00
8:55 AM,57.2,55.4,94,29.99,1.5,Calm,Calm,-,N/A,,Overcast,0,2012-10-05 12:55:00
8:58 AM,57.2,55.4,94,29.99,4.0,Calm,Calm,-,N/A,,Mostly Cloudy,0,2012-10-05 12:58:00
9:22 AM,60.8,55.4,82,30.00,10.0,South,4.6,-,N/A,,Mostly Cloudy,170,2012-10-05 13:22:00
9:52 AM,61.0,55.9,83,30.00,10.0,SSW,4.6,-,N/A,,Mostly Cloudy,210,2012-10-05 13:52:00
10:43 AM,64.4,55.4,73,29.98,10.0,WNW,5.8,-,N/A,,Scattered Clouds,300,2012-10-05 14:43:00
11:52 AM,69.1,54.0,58,29.96,10.0,WNW,4.6,-,N/A,,Clear,300,2012-10-05 15:52:00
12:52 PM,71.1,53.1,53,29.95,10.0,Variable,5.8,-,N/A,,Clear,0,2012-10-05 16:52:00
1:52 PM,73.0,52.0,48,29.93,10.0,Variable,3.5,-,N/A,,Partly Cloudy,0,2012-10-05 17:52:00
2:52 PM,71.1,53.1,53,29.91,10.0,SW,8.1,-,N/A,,Scattered Clouds,230,2012-10-05 18:52:00
3:52 PM,73.9,51.1,45,29.89,10.0,Calm,Calm,-,N/A,,Clear,0,2012-10-05 19:52:00
4:52 PM,71.1,51.1,49,29.89,10.0,SW,6.9,-,N/A,,Mostly Cloudy,230,2012-10-05 20:52:00
5:52 PM,69.1,52.0,54,29.90,10.0,Calm,Calm,-,N/A,,Partly Cloudy,0,2012-10-05 21:52:00
6:52 PM,62.1,57.0,84,29.91,10.0,Calm,Calm,-,N/A,,Overcast,0,2012-10-05 22:52:00
7:52 PM,59.0,55.9,90,29.91,9.0,Calm,Calm,-,N/A,,Overcast,0,2012-10-05 23:52:00
8:52 PM,57.0,54.0,89,29.90,9.0,Calm,Calm,-,N/A,,Mostly Cloudy,0,2012-10-06 00:52:00
9:52 PM,55.9,53.1,90,29.88,9.0,Calm,Calm,-,N/A,,Clear,0,2012-10-06 01:52:00
10:52 PM,57.0,54.0,89,29.89,8.0,Calm,Calm,-,N/A,,Overcast,0,2012-10-06 02:52:00
11:52 PM,57.9,54.0,87,29.87,9.0,Calm,Calm,-,N/A,,Mostly Cloudy,0,2012-10-06 03:52:00